sensor_id;sensor_type;location;lat;lon;timestamp;P1;durP1;ratioP1;P2;durP2;ratioP2
30147;SDS011;16960;49.404;8.248;2022-12-29T00:00:01;1.53;;;1.30;;
30147;SDS011;16960;49.404;8.248;2022-12-29T00:02:30;2.23;;;1.20;;
30147;SDS011;16960;49.404;8.248;2022-12-29T00:04:57;2.00;;;1.30;;
30147;SDS011;16960;49.404;8.248;2022-12-29T00:07:24;3.27;;;1.13;;
30147;SDS011;16960;49.404;8.248;2022-12-29T00:09:51;1.20;;;1.10;;
30147;SDS011;16960;49.404;8.248;2022-12-29T00:12:18;2.07;;;1.37;;
30147;SDS011;16960;49.404;8.248;2022-12-29T00:14:45;2.70;;;1.07;;
30147;SDS011;16960;49.404;8.248;2022-12-29T00:17:30;2.20;;;1.37;;
30147;SDS011;16960;49.404;8.248;2022-12-29T00:19:57;2.40;;;1.70;;
30147;SDS011;16960;49.404;8.248;2022-12-29T00:22:41;1.37;;;1.20;;
30147;SDS011;16960;49.404;8.248;2022-12-29T00:25:26;1.63;;;1.10;;
30147;SDS011;16960;49.404;8.248;2022-12-29T00:28:10;2.97;;;1.03;;
30147;SDS011;16960;49.404;8.248;2022-12-29T00:30:58;1.77;;;1.10;;
30147;SDS011;16960;49.404;8.248;2022-12-29T00:33:44;3.13;;;1.27;;
30147;SDS011;16960;49.404;8.248;2022-12-29T00:36:30;1.20;;;1.10;;
30147;SDS011;16960;49.404;8.248;2022-12-29T00:39:02;1.67;;;1.03;;
30147;SDS011;16960;49.404;8.248;2022-12-29T00:41:48;2.07;;;1.10;;
30147;SDS011;16960;49.404;8.248;2022-12-29T00:44:32;1.40;;;1.13;;
30147;SDS011;16960;49.404;8.248;2022-12-29T00:46:59;1.20;;;0.97;;
30147;SDS011;16960;49.404;8.248;2022-12-29T00:49:29;1.17;;;0.90;;
30147;SDS011;16960;49.404;8.248;2022-12-29T00:51:56;1.23;;;1.10;;
30147;SDS011;16960;49.404;8.248;2022-12-29T00:54:25;1.70;;;1.10;;
30147;SDS011;16960;49.404;8.248;2022-12-29T00:56:52;1.37;;;1.13;;
30147;SDS011;16960;49.404;8.248;2022-12-29T00:59:20;1.70;;;1.00;;
30147;SDS011;16960;49.404;8.248;2022-12-29T01:01:49;3.87;;;1.10;;
30147;SDS011;16960;49.404;8.248;2022-12-29T01:04:17;1.10;;;1.00;;
30147;SDS011;16960;49.404;8.248;2022-12-29T01:06:45;1.53;;;0.90;;
30147;SDS011;16960;49.404;8.248;2022-12-29T01:09:12;1.60;;;1.00;;
30147;SDS011;16960;49.404;8.248;2022-12-29T01:11:57;2.03;;;0.70;;
30147;SDS011;16960;49.404;8.248;2022-12-29T01:14:25;1.30;;;1.10;;
30147;SDS011;16960;49.404;8.248;2022-12-29T01:16:52;1.03;;;0.93;;
30147;SDS011;16960;49.404;8.248;2022-12-29T01:19:20;1.27;;;1.17;;
30147;SDS011;16960;49.404;8.248;2022-12-29T01:21:48;0.87;;;0.87;;
30147;SDS011;16960;49.404;8.248;2022-12-29T01:24:16;0.87;;;0.70;;
30147;SDS011;16960;49.404;8.248;2022-12-29T01:26:44;1.10;;;0.90;;
30147;SDS011;16960;49.404;8.248;2022-12-29T01:29:11;2.00;;;0.97;;
30147;SDS011;16960;49.404;8.248;2022-12-29T01:31:38;0.80;;;0.70;;
30147;SDS011;16960;49.404;8.248;2022-12-29T01:34:05;1.33;;;0.80;;
30147;SDS011;16960;49.404;8.248;2022-12-29T01:36:32;1.17;;;0.77;;
30147;SDS011;16960;49.404;8.248;2022-12-29T01:39:01;1.33;;;0.70;;
30147;SDS011;16960;49.404;8.248;2022-12-29T01:41:27;1.13;;;0.70;;
30147;SDS011;16960;49.404;8.248;2022-12-29T01:43:55;2.07;;;1.00;;
30147;SDS011;16960;49.404;8.248;2022-12-29T01:46:25;1.90;;;1.10;;
30147;SDS011;16960;49.404;8.248;2022-12-29T01:48:57;1.17;;;0.70;;
30147;SDS011;16960;49.404;8.248;2022-12-29T01:51:30;1.40;;;0.93;;
30147;SDS011;16960;49.404;8.248;2022-12-29T01:54:01;1.20;;;1.00;;
30147;SDS011;16960;49.404;8.248;2022-12-29T01:56:31;1.10;;;0.73;;
30147;SDS011;16960;49.404;8.248;2022-12-29T01:58:59;2.73;;;1.03;;
30147;SDS011;16960;49.404;8.248;2022-12-29T02:01:30;1.33;;;1.00;;
30147;SDS011;16960;49.404;8.248;2022-12-29T02:03:57;1.20;;;0.90;;
30147;SDS011;16960;49.404;8.248;2022-12-29T02:06:26;1.00;;;0.73;;
30147;SDS011;16960;49.404;8.248;2022-12-29T02:08:57;0.67;;;0.63;;
30147;SDS011;16960;49.404;8.248;2022-12-29T02:11:26;0.73;;;0.70;;
30147;SDS011;16960;49.404;8.248;2022-12-29T02:13:56;1.47;;;0.80;;
30147;SDS011;16960;49.404;8.248;2022-12-29T02:16:28;1.00;;;0.90;;
30147;SDS011;16960;49.404;8.248;2022-12-29T02:19:05;1.03;;;0.87;;
30147;SDS011;16960;49.404;8.248;2022-12-29T02:21:53;0.80;;;0.80;;
30147;SDS011;16960;49.404;8.248;2022-12-29T02:27:45;0.97;;;0.67;;
30147;SDS011;16960;49.404;8.248;2022-12-29T02:30:31;0.80;;;0.80;;
30147;SDS011;16960;49.404;8.248;2022-12-29T02:33:05;1.30;;;1.03;;
30147;SDS011;16960;49.404;8.248;2022-12-29T02:35:41;0.70;;;0.60;;
30147;SDS011;16960;49.404;8.248;2022-12-29T02:38:18;1.07;;;0.70;;
30147;SDS011;16960;49.404;8.248;2022-12-29T02:40:52;0.70;;;0.70;;
30147;SDS011;16960;49.404;8.248;2022-12-29T02:43:25;1.03;;;0.93;;
30147;SDS011;16960;49.404;8.248;2022-12-29T02:45:59;1.00;;;0.90;;
30147;SDS011;16960;49.404;8.248;2022-12-29T02:48:34;0.97;;;0.83;;
30147;SDS011;16960;49.404;8.248;2022-12-29T02:51:09;1.20;;;0.90;;
30147;SDS011;16960;49.404;8.248;2022-12-29T02:53:42;0.70;;;0.67;;
30147;SDS011;16960;49.404;8.248;2022-12-29T02:56:28;0.57;;;0.47;;
30147;SDS011;16960;49.404;8.248;2022-12-29T02:58:55;1.17;;;1.07;;
30147;SDS011;16960;49.404;8.248;2022-12-29T03:01:29;1.07;;;0.70;;
30147;SDS011;16960;49.404;8.248;2022-12-29T03:04:04;0.80;;;0.80;;
30147;SDS011;16960;49.404;8.248;2022-12-29T03:06:43;2.53;;;1.43;;
30147;SDS011;16960;49.404;8.248;2022-12-29T03:09:21;1.07;;;1.00;;
30147;SDS011;16960;49.404;8.248;2022-12-29T03:11:57;1.40;;;0.80;;
30147;SDS011;16960;49.404;8.248;2022-12-29T03:14:39;1.70;;;0.80;;
30147;SDS011;16960;49.404;8.248;2022-12-29T03:17:37;1.10;;;1.00;;
30147;SDS011;16960;49.404;8.248;2022-12-29T03:20:13;0.57;;;0.50;;
30147;SDS011;16960;49.404;8.248;2022-12-29T03:22:43;0.70;;;0.67;;
30147;SDS011;16960;49.404;8.248;2022-12-29T03:25:14;1.20;;;0.80;;
30147;SDS011;16960;49.404;8.248;2022-12-29T03:27:47;1.83;;;0.90;;
30147;SDS011;16960;49.404;8.248;2022-12-29T03:30:17;1.10;;;0.80;;
30147;SDS011;16960;49.404;8.248;2022-12-29T03:32:46;2.13;;;1.00;;
30147;SDS011;16960;49.404;8.248;2022-12-29T03:35:16;1.30;;;0.87;;
30147;SDS011;16960;49.404;8.248;2022-12-29T03:37:51;0.90;;;0.60;;
30147;SDS011;16960;49.404;8.248;2022-12-29T03:40:21;0.87;;;0.80;;
30147;SDS011;16960;49.404;8.248;2022-12-29T03:42:50;0.70;;;0.70;;
30147;SDS011;16960;49.404;8.248;2022-12-29T03:45:18;1.07;;;0.97;;
30147;SDS011;16960;49.404;8.248;2022-12-29T03:47:47;1.53;;;0.70;;
30147;SDS011;16960;49.404;8.248;2022-12-29T03:50:14;0.77;;;0.77;;
30147;SDS011;16960;49.404;8.248;2022-12-29T03:52:41;2.13;;;1.10;;
30147;SDS011;16960;49.404;8.248;2022-12-29T03:55:08;1.70;;;1.00;;
30147;SDS011;16960;49.404;8.248;2022-12-29T03:57:35;1.03;;;0.80;;
30147;SDS011;16960;49.404;8.248;2022-12-29T04:00:02;0.97;;;0.87;;
30147;SDS011;16960;49.404;8.248;2022-12-29T04:02:31;1.07;;;0.70;;
30147;SDS011;16960;49.404;8.248;2022-12-29T04:05:00;1.20;;;0.70;;
30147;SDS011;16960;49.404;8.248;2022-12-29T04:07:26;1.13;;;0.80;;
30147;SDS011;16960;49.404;8.248;2022-12-29T04:09:53;1.63;;;0.80;;
30147;SDS011;16960;49.404;8.248;2022-12-29T04:12:20;0.90;;;0.80;;
30147;SDS011;16960;49.404;8.248;2022-12-29T04:14:47;1.80;;;1.00;;
30147;SDS011;16960;49.404;8.248;2022-12-29T04:17:14;1.50;;;1.00;;
30147;SDS011;16960;49.404;8.248;2022-12-29T04:19:41;2.63;;;0.90;;
30147;SDS011;16960;49.404;8.248;2022-12-29T04:22:09;1.70;;;0.90;;
30147;SDS011;16960;49.404;8.248;2022-12-29T04:24:36;1.27;;;0.77;;
30147;SDS011;16960;49.404;8.248;2022-12-29T04:27:03;1.73;;;0.90;;
30147;SDS011;16960;49.404;8.248;2022-12-29T04:29:30;1.07;;;0.70;;
30147;SDS011;16960;49.404;8.248;2022-12-29T04:31:57;0.80;;;0.70;;
30147;SDS011;16960;49.404;8.248;2022-12-29T04:34:24;1.43;;;0.90;;
30147;SDS011;16960;49.404;8.248;2022-12-29T04:36:51;0.83;;;0.80;;
30147;SDS011;16960;49.404;8.248;2022-12-29T04:39:19;1.70;;;0.70;;
30147;SDS011;16960;49.404;8.248;2022-12-29T04:41:46;0.93;;;0.73;;
30147;SDS011;16960;49.404;8.248;2022-12-29T04:44:13;1.13;;;0.90;;
30147;SDS011;16960;49.404;8.248;2022-12-29T04:46:40;1.17;;;0.90;;
30147;SDS011;16960;49.404;8.248;2022-12-29T04:49:07;1.10;;;0.50;;
30147;SDS011;16960;49.404;8.248;2022-12-29T04:51:34;0.87;;;0.80;;
30147;SDS011;16960;49.404;8.248;2022-12-29T04:54:01;0.87;;;0.87;;
30147;SDS011;16960;49.404;8.248;2022-12-29T04:56:29;2.53;;;1.00;;
30147;SDS011;16960;49.404;8.248;2022-12-29T04:58:56;1.37;;;0.90;;
30147;SDS011;16960;49.404;8.248;2022-12-29T05:01:23;1.23;;;0.70;;
30147;SDS011;16960;49.404;8.248;2022-12-29T05:03:50;0.70;;;0.70;;
30147;SDS011;16960;49.404;8.248;2022-12-29T05:06:17;0.87;;;0.80;;
30147;SDS011;16960;49.404;8.248;2022-12-29T05:08:44;0.90;;;0.77;;
30147;SDS011;16960;49.404;8.248;2022-12-29T05:11:11;0.70;;;0.70;;
30147;SDS011;16960;49.404;8.248;2022-12-29T05:13:39;1.40;;;1.03;;
30147;SDS011;16960;49.404;8.248;2022-12-29T05:16:06;1.77;;;0.80;;
30147;SDS011;16960;49.404;8.248;2022-12-29T05:18:33;2.07;;;0.90;;
30147;SDS011;16960;49.404;8.248;2022-12-29T05:21:00;0.80;;;0.70;;
30147;SDS011;16960;49.404;8.248;2022-12-29T05:23:27;1.27;;;0.90;;
30147;SDS011;16960;49.404;8.248;2022-12-29T05:25:54;1.17;;;0.70;;
30147;SDS011;16960;49.404;8.248;2022-12-29T05:28:21;0.87;;;0.87;;
30147;SDS011;16960;49.404;8.248;2022-12-29T05:30:49;1.00;;;0.80;;
30147;SDS011;16960;49.404;8.248;2022-12-29T05:33:17;0.50;;;0.50;;
30147;SDS011;16960;49.404;8.248;2022-12-29T05:35:44;1.20;;;1.10;;
30147;SDS011;16960;49.404;8.248;2022-12-29T05:38:11;3.10;;;0.93;;
30147;SDS011;16960;49.404;8.248;2022-12-29T05:40:38;0.77;;;0.60;;
30147;SDS011;16960;49.404;8.248;2022-12-29T05:43:05;1.67;;;0.80;;
30147;SDS011;16960;49.404;8.248;2022-12-29T05:45:32;1.27;;;0.73;;
30147;SDS011;16960;49.404;8.248;2022-12-29T05:48:00;2.40;;;0.80;;
30147;SDS011;16960;49.404;8.248;2022-12-29T05:50:27;1.20;;;0.80;;
30147;SDS011;16960;49.404;8.248;2022-12-29T05:52:56;1.17;;;0.93;;
30147;SDS011;16960;49.404;8.248;2022-12-29T05:55:23;1.60;;;0.77;;
30147;SDS011;16960;49.404;8.248;2022-12-29T05:57:50;1.30;;;0.90;;
30147;SDS011;16960;49.404;8.248;2022-12-29T06:00:17;0.80;;;0.80;;
30147;SDS011;16960;49.404;8.248;2022-12-29T06:02:44;1.40;;;0.80;;
30147;SDS011;16960;49.404;8.248;2022-12-29T06:05:12;1.43;;;0.93;;
30147;SDS011;16960;49.404;8.248;2022-12-29T06:07:39;0.70;;;0.70;;
30147;SDS011;16960;49.404;8.248;2022-12-29T06:10:06;1.27;;;0.77;;
30147;SDS011;16960;49.404;8.248;2022-12-29T06:12:34;1.43;;;0.60;;
30147;SDS011;16960;49.404;8.248;2022-12-29T06:15:01;3.07;;;1.20;;
30147;SDS011;16960;49.404;8.248;2022-12-29T06:17:28;1.50;;;1.03;;
30147;SDS011;16960;49.404;8.248;2022-12-29T06:19:54;0.70;;;0.53;;
30147;SDS011;16960;49.404;8.248;2022-12-29T06:22:23;1.40;;;0.93;;
30147;SDS011;16960;49.404;8.248;2022-12-29T06:24:50;1.10;;;0.70;;
30147;SDS011;16960;49.404;8.248;2022-12-29T06:27:16;1.70;;;1.13;;
30147;SDS011;16960;49.404;8.248;2022-12-29T06:29:43;0.80;;;0.70;;
30147;SDS011;16960;49.404;8.248;2022-12-29T06:32:11;2.23;;;1.07;;
30147;SDS011;16960;49.404;8.248;2022-12-29T06:34:38;1.33;;;1.00;;
30147;SDS011;16960;49.404;8.248;2022-12-29T06:37:05;1.67;;;0.90;;
30147;SDS011;16960;49.404;8.248;2022-12-29T06:39:33;1.60;;;0.80;;
30147;SDS011;16960;49.404;8.248;2022-12-29T06:42:00;2.37;;;0.87;;
30147;SDS011;16960;49.404;8.248;2022-12-29T06:44:26;1.90;;;1.13;;
30147;SDS011;16960;49.404;8.248;2022-12-29T06:46:53;1.40;;;0.80;;
30147;SDS011;16960;49.404;8.248;2022-12-29T06:49:20;2.20;;;0.80;;
30147;SDS011;16960;49.404;8.248;2022-12-29T06:51:47;0.90;;;0.87;;
30147;SDS011;16960;49.404;8.248;2022-12-29T06:54:14;4.87;;;1.17;;
30147;SDS011;16960;49.404;8.248;2022-12-29T06:56:43;3.27;;;1.20;;
30147;SDS011;16960;49.404;8.248;2022-12-29T06:59:10;1.40;;;0.90;;
30147;SDS011;16960;49.404;8.248;2022-12-29T07:01:37;2.10;;;1.13;;
30147;SDS011;16960;49.404;8.248;2022-12-29T07:04:04;1.90;;;1.17;;
30147;SDS011;16960;49.404;8.248;2022-12-29T07:06:31;1.40;;;1.30;;
30147;SDS011;16960;49.404;8.248;2022-12-29T07:08:58;5.30;;;1.40;;
30147;SDS011;16960;49.404;8.248;2022-12-29T07:11:25;2.07;;;1.17;;
30147;SDS011;16960;49.404;8.248;2022-12-29T07:13:53;1.20;;;1.10;;
30147;SDS011;16960;49.404;8.248;2022-12-29T07:16:21;1.03;;;0.80;;
30147;SDS011;16960;49.404;8.248;2022-12-29T07:18:48;2.13;;;1.10;;
30147;SDS011;16960;49.404;8.248;2022-12-29T07:21:15;2.23;;;1.10;;
30147;SDS011;16960;49.404;8.248;2022-12-29T07:23:41;1.67;;;1.50;;
30147;SDS011;16960;49.404;8.248;2022-12-29T07:26:09;0.80;;;0.80;;
30147;SDS011;16960;49.404;8.248;2022-12-29T07:28:38;2.13;;;1.20;;
30147;SDS011;16960;49.404;8.248;2022-12-29T07:31:09;3.87;;;1.20;;
30147;SDS011;16960;49.404;8.248;2022-12-29T07:33:40;1.17;;;1.00;;
30147;SDS011;16960;49.404;8.248;2022-12-29T07:36:08;2.37;;;1.60;;
30147;SDS011;16960;49.404;8.248;2022-12-29T07:38:35;3.70;;;1.57;;
30147;SDS011;16960;49.404;8.248;2022-12-29T07:41:02;3.33;;;1.07;;
30147;SDS011;16960;49.404;8.248;2022-12-29T07:43:29;4.00;;;1.60;;
30147;SDS011;16960;49.404;8.248;2022-12-29T07:45:56;1.53;;;1.43;;
30147;SDS011;16960;49.404;8.248;2022-12-29T07:48:24;1.70;;;1.53;;
30147;SDS011;16960;49.404;8.248;2022-12-29T07:50:51;2.70;;;1.57;;
30147;SDS011;16960;49.404;8.248;2022-12-29T07:53:19;3.30;;;1.80;;
30147;SDS011;16960;49.404;8.248;2022-12-29T07:55:45;1.37;;;1.27;;
30147;SDS011;16960;49.404;8.248;2022-12-29T07:58:12;2.47;;;2.00;;
30147;SDS011;16960;49.404;8.248;2022-12-29T08:00:39;4.73;;;1.50;;
30147;SDS011;16960;49.404;8.248;2022-12-29T08:03:06;1.57;;;1.43;;
30147;SDS011;16960;49.404;8.248;2022-12-29T08:05:34;1.70;;;1.60;;
30147;SDS011;16960;49.404;8.248;2022-12-29T08:08:01;2.67;;;1.43;;
30147;SDS011;16960;49.404;8.248;2022-12-29T08:10:28;2.90;;;1.40;;
30147;SDS011;16960;49.404;8.248;2022-12-29T08:12:55;3.73;;;1.60;;
30147;SDS011;16960;49.404;8.248;2022-12-29T08:15:23;6.67;;;1.27;;
30147;SDS011;16960;49.404;8.248;2022-12-29T08:17:50;2.10;;;1.53;;
30147;SDS011;16960;49.404;8.248;2022-12-29T08:20:17;2.50;;;1.47;;
30147;SDS011;16960;49.404;8.248;2022-12-29T08:22:45;2.10;;;1.40;;
30147;SDS011;16960;49.404;8.248;2022-12-29T08:25:13;2.30;;;1.47;;
30147;SDS011;16960;49.404;8.248;2022-12-29T08:27:40;2.30;;;1.87;;
30147;SDS011;16960;49.404;8.248;2022-12-29T08:30:07;1.83;;;1.50;;
30147;SDS011;16960;49.404;8.248;2022-12-29T08:32:35;1.73;;;1.63;;
30147;SDS011;16960;49.404;8.248;2022-12-29T08:35:02;2.93;;;1.50;;
30147;SDS011;16960;49.404;8.248;2022-12-29T08:37:29;1.63;;;1.30;;
30147;SDS011;16960;49.404;8.248;2022-12-29T08:39:59;2.53;;;1.30;;
30147;SDS011;16960;49.404;8.248;2022-12-29T08:42:28;1.47;;;1.30;;
30147;SDS011;16960;49.404;8.248;2022-12-29T08:44:56;1.97;;;1.23;;
30147;SDS011;16960;49.404;8.248;2022-12-29T08:47:23;1.80;;;1.40;;
30147;SDS011;16960;49.404;8.248;2022-12-29T08:49:49;2.20;;;1.10;;
30147;SDS011;16960;49.404;8.248;2022-12-29T08:52:17;4.50;;;1.33;;
30147;SDS011;16960;49.404;8.248;2022-12-29T08:54:44;1.53;;;1.10;;
30147;SDS011;16960;49.404;8.248;2022-12-29T08:57:12;1.50;;;1.20;;
30147;SDS011;16960;49.404;8.248;2022-12-29T08:59:39;1.40;;;1.30;;
30147;SDS011;16960;49.404;8.248;2022-12-29T09:02:08;2.27;;;1.30;;
30147;SDS011;16960;49.404;8.248;2022-12-29T09:04:36;1.40;;;1.30;;
30147;SDS011;16960;49.404;8.248;2022-12-29T09:07:04;1.70;;;1.30;;
30147;SDS011;16960;49.404;8.248;2022-12-29T09:09:31;1.90;;;1.57;;
30147;SDS011;16960;49.404;8.248;2022-12-29T09:11:58;1.20;;;1.10;;
30147;SDS011;16960;49.404;8.248;2022-12-29T09:14:26;1.10;;;1.00;;
30147;SDS011;16960;49.404;8.248;2022-12-29T09:16:53;1.63;;;1.07;;
30147;SDS011;16960;49.404;8.248;2022-12-29T09:19:38;1.40;;;1.30;;
30147;SDS011;16960;49.404;8.248;2022-12-29T09:22:05;1.60;;;1.30;;
30147;SDS011;16960;49.404;8.248;2022-12-29T09:24:32;1.90;;;1.30;;
30147;SDS011;16960;49.404;8.248;2022-12-29T09:26:58;3.33;;;1.63;;
30147;SDS011;16960;49.404;8.248;2022-12-29T09:29:27;1.93;;;1.40;;
30147;SDS011;16960;49.404;8.248;2022-12-29T09:31:54;2.13;;;1.73;;
30147;SDS011;16960;49.404;8.248;2022-12-29T09:34:20;1.23;;;1.00;;
30147;SDS011;16960;49.404;8.248;2022-12-29T09:36:48;1.63;;;1.37;;
30147;SDS011;16960;49.404;8.248;2022-12-29T09:39:15;1.53;;;1.30;;
30147;SDS011;16960;49.404;8.248;2022-12-29T09:41:43;1.40;;;1.30;;
30147;SDS011;16960;49.404;8.248;2022-12-29T09:44:16;2.00;;;1.20;;
30147;SDS011;16960;49.404;8.248;2022-12-29T09:46:51;1.23;;;1.10;;
30147;SDS011;16960;49.404;8.248;2022-12-29T09:49:22;1.53;;;1.20;;
30147;SDS011;16960;49.404;8.248;2022-12-29T09:51:52;2.80;;;1.30;;
30147;SDS011;16960;49.404;8.248;2022-12-29T09:54:28;1.30;;;1.20;;
30147;SDS011;16960;49.404;8.248;2022-12-29T09:57:08;2.50;;;1.40;;
30147;SDS011;16960;49.404;8.248;2022-12-29T09:59:48;1.77;;;1.00;;
30147;SDS011;16960;49.404;8.248;2022-12-29T10:02:26;1.77;;;1.07;;
30147;SDS011;16960;49.404;8.248;2022-12-29T10:04:58;1.60;;;1.50;;
30147;SDS011;16960;49.404;8.248;2022-12-29T10:07:27;1.37;;;1.10;;
30147;SDS011;16960;49.404;8.248;2022-12-29T10:10:10;1.57;;;1.43;;
30147;SDS011;16960;49.404;8.248;2022-12-29T10:12:50;2.87;;;1.30;;
30147;SDS011;16960;49.404;8.248;2022-12-29T10:15:29;1.57;;;1.30;;
30147;SDS011;16960;49.404;8.248;2022-12-29T10:18:12;4.07;;;1.50;;
30147;SDS011;16960;49.404;8.248;2022-12-29T10:20:52;2.20;;;1.20;;
30147;SDS011;16960;49.404;8.248;2022-12-29T10:23:24;1.40;;;1.10;;
30147;SDS011;16960;49.404;8.248;2022-12-29T10:25:55;1.67;;;1.57;;
30147;SDS011;16960;49.404;8.248;2022-12-29T10:28:23;2.13;;;1.50;;
30147;SDS011;16960;49.404;8.248;2022-12-29T10:30:58;1.10;;;1.00;;
30147;SDS011;16960;49.404;8.248;2022-12-29T10:33:32;1.77;;;1.10;;
30147;SDS011;16960;49.404;8.248;2022-12-29T10:36:04;1.23;;;1.10;;
30147;SDS011;16960;49.404;8.248;2022-12-29T10:38:44;4.00;;;1.87;;
30147;SDS011;16960;49.404;8.248;2022-12-29T10:41:17;1.13;;;1.00;;
30147;SDS011;16960;49.404;8.248;2022-12-29T10:43:50;1.83;;;1.50;;
30147;SDS011;16960;49.404;8.248;2022-12-29T10:46:20;1.60;;;1.50;;
30147;SDS011;16960;49.404;8.248;2022-12-29T10:48:51;1.73;;;1.63;;
30147;SDS011;16960;49.404;8.248;2022-12-29T10:51:20;1.73;;;1.30;;
30147;SDS011;16960;49.404;8.248;2022-12-29T10:53:49;1.30;;;1.20;;
30147;SDS011;16960;49.404;8.248;2022-12-29T10:56:22;1.27;;;1.03;;
30147;SDS011;16960;49.404;8.248;2022-12-29T10:58:56;1.63;;;1.00;;
30147;SDS011;16960;49.404;8.248;2022-12-29T11:01:30;1.47;;;1.20;;
30147;SDS011;16960;49.404;8.248;2022-12-29T11:04:05;1.00;;;0.90;;
30147;SDS011;16960;49.404;8.248;2022-12-29T11:06:43;1.43;;;1.30;;
30147;SDS011;16960;49.404;8.248;2022-12-29T11:09:11;1.80;;;1.10;;
30147;SDS011;16960;49.404;8.248;2022-12-29T11:11:45;1.20;;;1.10;;
30147;SDS011;16960;49.404;8.248;2022-12-29T11:14:13;1.30;;;1.20;;
30147;SDS011;16960;49.404;8.248;2022-12-29T11:16:41;1.87;;;1.37;;
30147;SDS011;16960;49.404;8.248;2022-12-29T11:19:20;1.30;;;1.20;;
30147;SDS011;16960;49.404;8.248;2022-12-29T11:21:49;1.17;;;0.93;;
30147;SDS011;16960;49.404;8.248;2022-12-29T11:24:20;1.40;;;1.07;;
30147;SDS011;16960;49.404;8.248;2022-12-29T11:26:49;1.20;;;1.10;;
30147;SDS011;16960;49.404;8.248;2022-12-29T11:29:26;2.23;;;1.80;;
30147;SDS011;16960;49.404;8.248;2022-12-29T11:31:55;1.30;;;0.97;;
30147;SDS011;16960;49.404;8.248;2022-12-29T11:34:26;1.23;;;1.10;;
30147;SDS011;16960;49.404;8.248;2022-12-29T11:36:58;1.27;;;1.17;;
30147;SDS011;16960;49.404;8.248;2022-12-29T11:39:32;3.13;;;1.40;;
30147;SDS011;16960;49.404;8.248;2022-12-29T11:42:03;1.60;;;1.10;;
30147;SDS011;16960;49.404;8.248;2022-12-29T11:44:37;1.10;;;0.87;;
30147;SDS011;16960;49.404;8.248;2022-12-29T11:47:11;0.83;;;0.83;;
30147;SDS011;16960;49.404;8.248;2022-12-29T11:49:50;1.10;;;1.00;;
30147;SDS011;16960;49.404;8.248;2022-12-29T11:52:23;1.60;;;0.90;;
30147;SDS011;16960;49.404;8.248;2022-12-29T11:54:54;1.63;;;1.10;;
30147;SDS011;16960;49.404;8.248;2022-12-29T11:57:22;2.30;;;1.40;;
30147;SDS011;16960;49.404;8.248;2022-12-29T11:59:51;1.67;;;1.00;;
30147;SDS011;16960;49.404;8.248;2022-12-29T12:05:21;1.30;;;1.20;;
30147;SDS011;16960;49.404;8.248;2022-12-29T12:07:54;2.57;;;0.63;;
30147;SDS011;16960;49.404;8.248;2022-12-29T12:10:28;1.03;;;0.87;;
30147;SDS011;16960;49.404;8.248;2022-12-29T12:13:05;1.67;;;1.07;;
30147;SDS011;16960;49.404;8.248;2022-12-29T12:15:42;0.87;;;0.70;;
30147;SDS011;16960;49.404;8.248;2022-12-29T12:18:24;1.10;;;0.83;;
30147;SDS011;16960;49.404;8.248;2022-12-29T12:21:05;0.90;;;0.60;;
30147;SDS011;16960;49.404;8.248;2022-12-29T12:23:42;1.03;;;0.80;;
30147;SDS011;16960;49.404;8.248;2022-12-29T12:26:19;2.33;;;1.77;;
30147;SDS011;16960;49.404;8.248;2022-12-29T12:28:49;1.50;;;0.73;;
30147;SDS011;16960;49.404;8.248;2022-12-29T12:31:23;2.10;;;0.83;;
30147;SDS011;16960;49.404;8.248;2022-12-29T12:34:01;0.80;;;0.67;;
30147;SDS011;16960;49.404;8.248;2022-12-29T12:36:52;0.80;;;0.80;;
30147;SDS011;16960;49.404;8.248;2022-12-29T12:39:47;1.63;;;0.73;;
30147;SDS011;16960;49.404;8.248;2022-12-29T12:42:33;1.27;;;0.80;;
30147;SDS011;16960;49.404;8.248;2022-12-29T12:45:26;1.67;;;0.77;;
30147;SDS011;16960;49.404;8.248;2022-12-29T12:48:06;1.00;;;0.63;;
30147;SDS011;16960;49.404;8.248;2022-12-29T12:50:45;1.20;;;1.10;;
30147;SDS011;16960;49.404;8.248;2022-12-29T12:53:35;0.70;;;0.70;;
30147;SDS011;16960;49.404;8.248;2022-12-29T12:56:17;2.43;;;1.10;;
30147;SDS011;16960;49.404;8.248;2022-12-29T12:58:58;1.43;;;1.03;;
30147;SDS011;16960;49.404;8.248;2022-12-29T13:01:37;1.17;;;1.00;;
30147;SDS011;16960;49.404;8.248;2022-12-29T13:07:19;0.97;;;0.80;;
30147;SDS011;16960;49.404;8.248;2022-12-29T13:10:01;1.17;;;0.90;;
30147;SDS011;16960;49.404;8.248;2022-12-29T13:12:44;0.90;;;0.80;;
30147;SDS011;16960;49.404;8.248;2022-12-29T13:15:18;0.97;;;0.70;;
30147;SDS011;16960;49.404;8.248;2022-12-29T13:17:59;0.83;;;0.83;;
30147;SDS011;16960;49.404;8.248;2022-12-29T13:20:35;1.50;;;0.80;;
30147;SDS011;16960;49.404;8.248;2022-12-29T13:23:06;0.80;;;0.50;;
30147;SDS011;16960;49.404;8.248;2022-12-29T13:25:45;1.50;;;0.67;;
30147;SDS011;16960;49.404;8.248;2022-12-29T13:28:20;0.77;;;0.70;;
30147;SDS011;16960;49.404;8.248;2022-12-29T13:30:56;1.30;;;0.63;;
30147;SDS011;16960;49.404;8.248;2022-12-29T13:33:28;1.03;;;0.70;;
30147;SDS011;16960;49.404;8.248;2022-12-29T13:36:05;0.83;;;0.50;;
30147;SDS011;16960;49.404;8.248;2022-12-29T13:38:39;1.23;;;0.83;;
30147;SDS011;16960;49.404;8.248;2022-12-29T13:41:11;2.30;;;0.70;;
30147;SDS011;16960;49.404;8.248;2022-12-29T13:43:41;1.00;;;0.60;;
30147;SDS011;16960;49.404;8.248;2022-12-29T13:46:12;1.57;;;0.83;;
30147;SDS011;16960;49.404;8.248;2022-12-29T13:48:43;0.77;;;0.67;;
30147;SDS011;16960;49.404;8.248;2022-12-29T13:51:15;1.37;;;0.80;;
30147;SDS011;16960;49.404;8.248;2022-12-29T13:53:51;1.43;;;0.80;;
30147;SDS011;16960;49.404;8.248;2022-12-29T13:56:30;0.97;;;0.80;;
30147;SDS011;16960;49.404;8.248;2022-12-29T13:59:03;0.77;;;0.67;;
30147;SDS011;16960;49.404;8.248;2022-12-29T14:01:39;0.70;;;0.70;;
30147;SDS011;16960;49.404;8.248;2022-12-29T14:04:09;1.03;;;0.70;;
30147;SDS011;16960;49.404;8.248;2022-12-29T14:06:38;1.43;;;0.67;;
30147;SDS011;16960;49.404;8.248;2022-12-29T14:12:19;1.03;;;0.80;;
30147;SDS011;16960;49.404;8.248;2022-12-29T14:14:51;0.87;;;0.50;;
30147;SDS011;16960;49.404;8.248;2022-12-29T14:17:20;1.93;;;0.80;;
30147;SDS011;16960;49.404;8.248;2022-12-29T14:19:51;1.00;;;0.50;;
30147;SDS011;16960;49.404;8.248;2022-12-29T14:22:22;1.03;;;0.63;;
30147;SDS011;16960;49.404;8.248;2022-12-29T14:24:50;1.10;;;0.57;;
30147;SDS011;16960;49.404;8.248;2022-12-29T14:33:16;0.67;;;0.40;;
30147;SDS011;16960;49.404;8.248;2022-12-29T14:35:44;0.60;;;0.60;;
30147;SDS011;16960;49.404;8.248;2022-12-29T14:38:15;0.50;;;0.40;;
30147;SDS011;16960;49.404;8.248;2022-12-29T14:40:44;1.07;;;0.57;;
30147;SDS011;16960;49.404;8.248;2022-12-29T14:43:14;0.57;;;0.43;;
30147;SDS011;16960;49.404;8.248;2022-12-29T14:45:51;2.93;;;0.67;;
30147;SDS011;16960;49.404;8.248;2022-12-29T14:48:32;0.60;;;0.50;;
30147;SDS011;16960;49.404;8.248;2022-12-29T14:51:15;0.50;;;0.40;;
30147;SDS011;16960;49.404;8.248;2022-12-29T14:53:47;1.70;;;0.50;;
30147;SDS011;16960;49.404;8.248;2022-12-29T14:56:17;0.60;;;0.50;;
30147;SDS011;16960;49.404;8.248;2022-12-29T14:58:50;1.80;;;0.43;;
30147;SDS011;16960;49.404;8.248;2022-12-29T15:01:22;0.70;;;0.50;;
30147;SDS011;16960;49.404;8.248;2022-12-29T15:03:53;0.67;;;0.57;;
30147;SDS011;16960;49.404;8.248;2022-12-29T15:06:23;0.50;;;0.40;;
30147;SDS011;16960;49.404;8.248;2022-12-29T15:08:54;1.13;;;0.60;;
30147;SDS011;16960;49.404;8.248;2022-12-29T15:11:30;0.90;;;0.50;;
30147;SDS011;16960;49.404;8.248;2022-12-29T15:17:01;0.80;;;0.50;;
30147;SDS011;16960;49.404;8.248;2022-12-29T15:19:36;0.70;;;0.50;;
30147;SDS011;16960;49.404;8.248;2022-12-29T15:22:03;0.40;;;0.30;;
30147;SDS011;16960;49.404;8.248;2022-12-29T15:24:30;1.03;;;0.53;;
30147;SDS011;16960;49.404;8.248;2022-12-29T15:26:58;0.63;;;0.60;;
30147;SDS011;16960;49.404;8.248;2022-12-29T15:29:33;0.50;;;0.40;;
30147;SDS011;16960;49.404;8.248;2022-12-29T15:32:15;1.00;;;0.40;;